sensor_id;sensor_type;location;lat;lon;timestamp;temperature;humidity
6008;DHT22;3032;49.484;11.112;2023-01-25T00:01:59;4.60;99.90
6008;DHT22;3032;49.484;11.112;2023-01-25T00:04:25;4.10;99.90
6008;DHT22;3032;49.484;11.112;2023-01-25T00:06:51;4.10;99.90
6008;DHT22;3032;49.484;11.112;2023-01-25T00:09:17;4.20;99.90
6008;DHT22;3032;49.484;11.112;2023-01-25T00:11:43;4.10;99.90
6008;DHT22;3032;49.484;11.112;2023-01-25T00:14:10;4.10;99.90
6008;DHT22;3032;49.484;11.112;2023-01-25T00:16:36;4.00;99.90
6008;DHT22;3032;49.484;11.112;2023-01-25T00:19:03;3.70;99.90
6008;DHT22;3032;49.484;11.112;2023-01-25T00:21:28;3.20;99.90
6008;DHT22;3032;49.484;11.112;2023-01-25T00:23:54;3.30;99.90
6008;DHT22;3032;49.484;11.112;2023-01-25T00:26:20;3.30;99.90
6008;DHT22;3032;49.484;11.112;2023-01-25T00:28:49;3.10;99.90
6008;DHT22;3032;49.484;11.112;2023-01-25T00:37:46;2.90;99.90
6008;DHT22;3032;49.484;11.112;2023-01-25T00:40:14;2.80;99.90
6008;DHT22;3032;49.484;11.112;2023-01-25T00:42:40;2.90;99.90
6008;DHT22;3032;49.484;11.112;2023-01-25T00:45:06;3.10;99.90
6008;DHT22;3032;49.484;11.112;2023-01-25T00:47:32;3.20;99.90
6008;DHT22;3032;49.484;11.112;2023-01-25T00:49:57;3.20;99.90
6008;DHT22;3032;49.484;11.112;2023-01-25T00:52:23;3.20;99.90
6008;DHT22;3032;49.484;11.112;2023-01-25T00:58:10;3.00;99.90
6008;DHT22;3032;49.484;11.112;2023-01-25T01:00:36;3.10;99.90
6008;DHT22;3032;49.484;11.112;2023-01-25T01:03:01;2.70;99.90
6008;DHT22;3032;49.484;11.112;2023-01-25T01:05:46;2.70;99.90
6008;DHT22;3032;49.484;11.112;2023-01-25T01:22:03;2.20;99.90
6008;DHT22;3032;49.484;11.112;2023-01-25T01:24:47;2.10;99.90
6008;DHT22;3032;49.484;11.112;2023-01-25T01:27:31;2.40;99.90
6008;DHT22;3032;49.484;11.112;2023-01-25T01:30:16;2.50;99.90
6008;DHT22;3032;49.484;11.112;2023-01-25T01:33:00;2.90;99.90
6008;DHT22;3032;49.484;11.112;2023-01-25T01:35:44;3.00;99.90
6008;DHT22;3032;49.484;11.112;2023-01-25T01:38:28;2.90;99.90
6008;DHT22;3032;49.484;11.112;2023-01-25T01:41:13;2.70;99.90
6008;DHT22;3032;49.484;11.112;2023-01-25T01:43:58;2.70;99.90
6008;DHT22;3032;49.484;11.112;2023-01-25T01:46:48;2.50;99.90
6008;DHT22;3032;49.484;11.112;2023-01-25T01:49:34;2.50;99.90
6008;DHT22;3032;49.484;11.112;2023-01-25T01:52:21;2.70;99.90
6008;DHT22;3032;49.484;11.112;2023-01-25T01:55:12;3.10;99.90
6008;DHT22;3032;49.484;11.112;2023-01-25T01:57:58;3.10;99.90
6008;DHT22;3032;49.484;11.112;2023-01-25T02:00:43;3.20;99.90
6008;DHT22;3032;49.484;11.112;2023-01-25T02:03:27;3.40;99.90
6008;DHT22;3032;49.484;11.112;2023-01-25T02:06:15;3.40;99.90
6008;DHT22;3032;49.484;11.112;2023-01-25T02:09:03;3.40;99.90
6008;DHT22;3032;49.484;11.112;2023-01-25T02:11:49;3.00;99.90
6008;DHT22;3032;49.484;11.112;2023-01-25T02:14:36;2.70;99.90
6008;DHT22;3032;49.484;11.112;2023-01-25T02:17:32;2.30;99.90
6008;DHT22;3032;49.484;11.112;2023-01-25T02:20:25;2.10;99.90
6008;DHT22;3032;49.484;11.112;2023-01-25T02:23:32;2.00;99.90
6008;DHT22;3032;49.484;11.112;2023-01-25T02:26:17;2.10;99.90
6008;DHT22;3032;49.484;11.112;2023-01-25T02:29:04;1.90;99.90
6008;DHT22;3032;49.484;11.112;2023-01-25T02:31:49;2.20;99.90
6008;DHT22;3032;49.484;11.112;2023-01-25T02:34:33;2.40;99.90
6008;DHT22;3032;49.484;11.112;2023-01-25T02:37:17;2.50;99.90
6008;DHT22;3032;49.484;11.112;2023-01-25T02:40:01;2.30;99.90
6008;DHT22;3032;49.484;11.112;2023-01-25T02:42:46;2.40;99.90
6008;DHT22;3032;49.484;11.112;2023-01-25T02:45:30;2.70;99.90
6008;DHT22;3032;49.484;11.112;2023-01-25T02:48:14;2.70;99.90
6008;DHT22;3032;49.484;11.112;2023-01-25T02:50:59;2.70;99.90
6008;DHT22;3032;49.484;11.112;2023-01-25T02:53:43;2.30;99.90
6008;DHT22;3032;49.484;11.112;2023-01-25T02:56:28;2.30;99.90
6008;DHT22;3032;49.484;11.112;2023-01-25T02:59:13;2.10;99.90
6008;DHT22;3032;49.484;11.112;2023-01-25T03:01:57;2.00;99.90
6008;DHT22;3032;49.484;11.112;2023-01-25T03:04:41;2.10;99.90
6008;DHT22;3032;49.484;11.112;2023-01-25T03:07:25;2.00;99.90
6008;DHT22;3032;49.484;11.112;2023-01-25T03:10:09;2.10;99.90
6008;DHT22;3032;49.484;11.112;2023-01-25T03:12:54;2.30;99.90
6008;DHT22;3032;49.484;11.112;2023-01-25T03:15:38;2.50;99.90
6008;DHT22;3032;49.484;11.112;2023-01-25T03:18:04;2.40;99.90
6008;DHT22;3032;49.484;11.112;2023-01-25T03:20:29;2.70;99.90
6008;DHT22;3032;49.484;11.112;2023-01-25T03:22:55;2.60;99.90
6008;DHT22;3032;49.484;11.112;2023-01-25T03:25:20;2.70;99.90
6008;DHT22;3032;49.484;11.112;2023-01-25T03:27:46;3.10;99.90
6008;DHT22;3032;49.484;11.112;2023-01-25T03:30:12;3.20;99.90
6008;DHT22;3032;49.484;11.112;2023-01-25T03:32:38;3.40;99.90
6008;DHT22;3032;49.484;11.112;2023-01-25T03:35:04;3.30;99.90
6008;DHT22;3032;49.484;11.112;2023-01-25T03:37:29;3.10;99.90
6008;DHT22;3032;49.484;11.112;2023-01-25T03:39:56;2.90;99.90
6008;DHT22;3032;49.484;11.112;2023-01-25T03:42:22;2.90;99.90
6008;DHT22;3032;49.484;11.112;2023-01-25T03:44:48;2.90;99.90
6008;DHT22;3032;49.484;11.112;2023-01-25T03:47:14;2.90;99.90
6008;DHT22;3032;49.484;11.112;2023-01-25T03:49:41;3.00;99.90
6008;DHT22;3032;49.484;11.112;2023-01-25T03:52:07;2.90;99.90
6008;DHT22;3032;49.484;11.112;2023-01-25T03:54:32;2.80;99.90
6008;DHT22;3032;49.484;11.112;2023-01-25T03:56:58;2.80;99.90
6008;DHT22;3032;49.484;11.112;2023-01-25T03:59:24;2.80;99.90
6008;DHT22;3032;49.484;11.112;2023-01-25T04:01:49;2.70;99.90
6008;DHT22;3032;49.484;11.112;2023-01-25T04:04:15;2.50;99.90
6008;DHT22;3032;49.484;11.112;2023-01-25T04:06:40;2.50;99.90
6008;DHT22;3032;49.484;11.112;2023-01-25T04:09:06;2.50;99.90
6008;DHT22;3032;49.484;11.112;2023-01-25T04:11:32;2.60;99.90
6008;DHT22;3032;49.484;11.112;2023-01-25T04:13:57;3.00;99.90
6008;DHT22;3032;49.484;11.112;2023-01-25T04:16:23;2.80;99.90
6008;DHT22;3032;49.484;11.112;2023-01-25T04:18:48;2.50;99.90
6008;DHT22;3032;49.484;11.112;2023-01-25T04:21:14;2.40;99.90
6008;DHT22;3032;49.484;11.112;2023-01-25T04:23:39;2.70;99.90
6008;DHT22;3032;49.484;11.112;2023-01-25T04:26:06;2.70;99.90
6008;DHT22;3032;49.484;11.112;2023-01-25T04:28:33;3.00;99.90
6008;DHT22;3032;49.484;11.112;2023-01-25T04:30:59;2.90;99.90
6008;DHT22;3032;49.484;11.112;2023-01-25T04:33:26;2.90;99.90
6008;DHT22;3032;49.484;11.112;2023-01-25T04:35:52;3.00;99.90
6008;DHT22;3032;49.484;11.112;2023-01-25T04:38:18;2.80;99.90
6008;DHT22;3032;49.484;11.112;2023-01-25T04:40:44;2.70;99.90
6008;DHT22;3032;49.484;11.112;2023-01-25T04:43:16;2.40;99.90
6008;DHT22;3032;49.484;11.112;2023-01-25T04:45:42;2.00;99.90
6008;DHT22;3032;49.484;11.112;2023-01-25T04:48:09;2.10;99.90
6008;DHT22;3032;49.484;11.112;2023-01-25T04:50:36;2.00;99.90
6008;DHT22;3032;49.484;11.112;2023-01-25T04:53:03;2.10;99.90
6008;DHT22;3032;49.484;11.112;2023-01-25T04:55:28;1.90;99.90
6008;DHT22;3032;49.484;11.112;2023-01-25T04:57:54;2.00;99.90
6008;DHT22;3032;49.484;11.112;2023-01-25T05:00:19;2.40;99.90
6008;DHT22;3032;49.484;11.112;2023-01-25T05:02:45;2.70;99.90
6008;DHT22;3032;49.484;11.112;2023-01-25T05:05:11;2.90;99.90
6008;DHT22;3032;49.484;11.112;2023-01-25T05:07:37;2.50;99.90
6008;DHT22;3032;49.484;11.112;2023-01-25T05:10:03;2.10;99.90
6008;DHT22;3032;49.484;11.112;2023-01-25T05:12:29;2.40;99.90
6008;DHT22;3032;49.484;11.112;2023-01-25T05:14:55;2.60;99.90
6008;DHT22;3032;49.484;11.112;2023-01-25T05:17:20;2.20;99.90
6008;DHT22;3032;49.484;11.112;2023-01-25T05:19:46;2.70;99.90
6008;DHT22;3032;49.484;11.112;2023-01-25T05:22:13;2.50;99.90
6008;DHT22;3032;49.484;11.112;2023-01-25T05:24:40;2.50;99.90
6008;DHT22;3032;49.484;11.112;2023-01-25T05:27:07;2.40;99.90
6008;DHT22;3032;49.484;11.112;2023-01-25T05:29:38;2.50;99.90
6008;DHT22;3032;49.484;11.112;2023-01-25T05:32:16;2.80;99.90
6008;DHT22;3032;49.484;11.112;2023-01-25T05:34:42;2.50;99.90
6008;DHT22;3032;49.484;11.112;2023-01-25T05:37:10;2.20;99.90
6008;DHT22;3032;49.484;11.112;2023-01-25T05:39:36;2.40;99.90
6008;DHT22;3032;49.484;11.112;2023-01-25T05:42:02;3.00;99.90
6008;DHT22;3032;49.484;11.112;2023-01-25T05:44:28;2.60;99.90
6008;DHT22;3032;49.484;11.112;2023-01-25T05:46:53;2.40;99.90
6008;DHT22;3032;49.484;11.112;2023-01-25T05:49:19;2.00;99.90
6008;DHT22;3032;49.484;11.112;2023-01-25T05:51:45;2.20;99.90
6008;DHT22;3032;49.484;11.112;2023-01-25T05:54:13;2.30;99.90
6008;DHT22;3032;49.484;11.112;2023-01-25T05:56:40;2.60;99.90
6008;DHT22;3032;49.484;11.112;2023-01-25T05:59:05;2.60;99.90
6008;DHT22;3032;49.484;11.112;2023-01-25T06:01:31;2.50;99.90
6008;DHT22;3032;49.484;11.112;2023-01-25T06:03:57;2.40;99.90
6008;DHT22;3032;49.484;11.112;2023-01-25T06:06:23;2.40;99.90
6008;DHT22;3032;49.484;11.112;2023-01-25T06:08:49;2.10;99.90
6008;DHT22;3032;49.484;11.112;2023-01-25T06:11:18;2.00;99.90
6008;DHT22;3032;49.484;11.112;2023-01-25T06:13:44;1.70;99.90
6008;DHT22;3032;49.484;11.112;2023-01-25T06:16:10;1.70;99.90
6008;DHT22;3032;49.484;11.112;2023-01-25T06:18:36;2.10;99.90
6008;DHT22;3032;49.484;11.112;2023-01-25T06:21:03;2.10;99.90
6008;DHT22;3032;49.484;11.112;2023-01-25T06:23:29;2.20;99.90
6008;DHT22;3032;49.484;11.112;2023-01-25T06:25:59;2.00;99.90
6008;DHT22;3032;49.484;11.112;2023-01-25T06:28:25;2.20;99.90
6008;DHT22;3032;49.484;11.112;2023-01-25T06:30:50;2.50;99.90
6008;DHT22;3032;49.484;11.112;2023-01-25T06:33:16;2.80;99.90
6008;DHT22;3032;49.484;11.112;2023-01-25T06:35:41;2.80;99.90
6008;DHT22;3032;49.484;11.112;2023-01-25T06:38:08;2.40;99.90
6008;DHT22;3032;49.484;11.112;2023-01-25T06:40:34;2.20;99.90
6008;DHT22;3032;49.484;11.112;2023-01-25T06:43:07;2.30;99.90
6008;DHT22;3032;49.484;11.112;2023-01-25T06:45:34;2.10;99.90
6008;DHT22;3032;49.484;11.112;2023-01-25T06:48:00;2.00;99.90
6008;DHT22;3032;49.484;11.112;2023-01-25T06:50:26;1.80;99.90
6008;DHT22;3032;49.484;11.112;2023-01-25T06:52:52;1.80;99.90
6008;DHT22;3032;49.484;11.112;2023-01-25T06:55:18;2.00;99.90
6008;DHT22;3032;49.484;11.112;2023-01-25T06:57:44;2.40;99.90
6008;DHT22;3032;49.484;11.112;2023-01-25T07:00:10;2.50;99.90
6008;DHT22;3032;49.484;11.112;2023-01-25T07:02:35;2.80;99.90
6008;DHT22;3032;49.484;11.112;2023-01-25T07:05:01;2.80;99.90
6008;DHT22;3032;49.484;11.112;2023-01-25T07:07:27;2.10;99.90
6008;DHT22;3032;49.484;11.112;2023-01-25T07:09:52;1.90;99.90
6008;DHT22;3032;49.484;11.112;2023-01-25T07:12:18;1.90;99.90
6008;DHT22;3032;49.484;11.112;2023-01-25T07:14:44;1.90;99.90
6008;DHT22;3032;49.484;11.112;2023-01-25T07:17:12;2.00;99.90
6008;DHT22;3032;49.484;11.112;2023-01-25T07:19:38;2.30;99.90
6008;DHT22;3032;49.484;11.112;2023-01-25T07:22:03;2.30;99.90
6008;DHT22;3032;49.484;11.112;2023-01-25T07:24:29;2.20;99.90
6008;DHT22;3032;49.484;11.112;2023-01-25T07:26:55;2.10;99.90
6008;DHT22;3032;49.484;11.112;2023-01-25T07:29:20;2.10;99.90
6008;DHT22;3032;49.484;11.112;2023-01-25T07:31:46;2.00;99.90
6008;DHT22;3032;49.484;11.112;2023-01-25T07:34:12;2.20;99.90
6008;DHT22;3032;49.484;11.112;2023-01-25T07:36:39;2.10;99.90
6008;DHT22;3032;49.484;11.112;2023-01-25T07:39:05;1.80;99.90
6008;DHT22;3032;49.484;11.112;2023-01-25T07:41:31;1.90;99.90
6008;DHT22;3032;49.484;11.112;2023-01-25T07:43:57;2.00;99.90
6008;DHT22;3032;49.484;11.112;2023-01-25T07:46:23;1.80;99.90
6008;DHT22;3032;49.484;11.112;2023-01-25T07:48:50;1.80;99.90
6008;DHT22;3032;49.484;11.112;2023-01-25T07:51:17;2.00;99.90
6008;DHT22;3032;49.484;11.112;2023-01-25T07:53:54;2.00;99.90
6008;DHT22;3032;49.484;11.112;2023-01-25T07:56:26;1.80;99.90
6008;DHT22;3032;49.484;11.112;2023-01-25T07:58:53;1.60;99.90
6008;DHT22;3032;49.484;11.112;2023-01-25T08:01:20;1.70;99.90
6008;DHT22;3032;49.484;11.112;2023-01-25T08:03:47;2.10;99.90
6008;DHT22;3032;49.484;11.112;2023-01-25T08:06:13;2.10;99.90
6008;DHT22;3032;49.484;11.112;2023-01-25T08:08:41;2.30;99.90
6008;DHT22;3032;49.484;11.112;2023-01-25T08:11:10;2.80;99.90
6008;DHT22;3032;49.484;11.112;2023-01-25T08:13:38;3.00;99.90
6008;DHT22;3032;49.484;11.112;2023-01-25T08:16:04;3.10;99.90
6008;DHT22;3032;49.484;11.112;2023-01-25T08:18:30;3.30;99.90
6008;DHT22;3032;49.484;11.112;2023-01-25T08:20:58;3.40;99.90
6008;DHT22;3032;49.484;11.112;2023-01-25T08:23:25;3.20;99.90
6008;DHT22;3032;49.484;11.112;2023-01-25T08:25:50;3.10;99.90
6008;DHT22;3032;49.484;11.112;2023-01-25T08:28:16;2.80;99.90
6008;DHT22;3032;49.484;11.112;2023-01-25T08:30:41;2.30;99.90
6008;DHT22;3032;49.484;11.112;2023-01-25T08:33:07;2.00;99.90
6008;DHT22;3032;49.484;11.112;2023-01-25T08:35:33;2.10;99.90
6008;DHT22;3032;49.484;11.112;2023-01-25T08:38:01;2.20;99.90
6008;DHT22;3032;49.484;11.112;2023-01-25T08:40:26;2.50;99.90
6008;DHT22;3032;49.484;11.112;2023-01-25T08:42:52;2.60;99.90
6008;DHT22;3032;49.484;11.112;2023-01-25T08:45:17;2.70;99.90
6008;DHT22;3032;49.484;11.112;2023-01-25T08:47:43;2.60;99.90
6008;DHT22;3032;49.484;11.112;2023-01-25T08:50:09;2.70;99.90
6008;DHT22;3032;49.484;11.112;2023-01-25T08:52:35;2.70;99.90
6008;DHT22;3032;49.484;11.112;2023-01-25T08:55:00;2.90;99.90
6008;DHT22;3032;49.484;11.112;2023-01-25T08:57:26;3.00;99.90
6008;DHT22;3032;49.484;11.112;2023-01-25T08:59:51;3.40;99.90
6008;DHT22;3032;49.484;11.112;2023-01-25T09:02:17;3.40;99.90
6008;DHT22;3032;49.484;11.112;2023-01-25T09:04:43;3.40;99.90
6008;DHT22;3032;49.484;11.112;2023-01-25T09:07:09;2.90;99.90
6008;DHT22;3032;49.484;11.112;2023-01-25T09:09:35;2.60;99.90
6008;DHT22;3032;49.484;11.112;2023-01-25T09:12:00;2.50;99.90
6008;DHT22;3032;49.484;11.112;2023-01-25T09:14:26;2.60;99.90
6008;DHT22;3032;49.484;11.112;2023-01-25T09:16:51;2.60;99.90
6008;DHT22;3032;49.484;11.112;2023-01-25T09:19:17;2.60;99.90
6008;DHT22;3032;49.484;11.112;2023-01-25T09:21:42;2.50;99.90
6008;DHT22;3032;49.484;11.112;2023-01-25T09:24:08;2.60;99.90
6008;DHT22;3032;49.484;11.112;2023-01-25T09:26:37;2.80;99.90
6008;DHT22;3032;49.484;11.112;2023-01-25T09:29:03;3.20;99.90
6008;DHT22;3032;49.484;11.112;2023-01-25T09:31:29;3.30;99.90
6008;DHT22;3032;49.484;11.112;2023-01-25T09:33:55;3.10;99.90
6008;DHT22;3032;49.484;11.112;2023-01-25T09:36:22;2.80;99.90
6008;DHT22;3032;49.484;11.112;2023-01-25T09:38:48;2.30;99.90
6008;DHT22;3032;49.484;11.112;2023-01-25T09:41:34;2.30;99.90
6008;DHT22;3032;49.484;11.112;2023-01-25T09:46:44;2.10;99.90
6008;DHT22;3032;49.484;11.112;2023-01-25T09:52:09;2.10;99.90
6008;DHT22;3032;49.484;11.112;2023-01-25T09:54:39;2.10;99.90
6008;DHT22;3032;49.484;11.112;2023-01-25T09:57:18;2.00;99.90
6008;DHT22;3032;49.484;11.112;2023-01-25T09:59:47;1.70;99.90
6008;DHT22;3032;49.484;11.112;2023-01-25T10:04:59;2.00;99.90
6008;DHT22;3032;49.484;11.112;2023-01-25T10:10:39;3.00;99.90
6008;DHT22;3032;49.484;11.112;2023-01-25T10:13:10;3.50;99.90
6008;DHT22;3032;49.484;11.112;2023-01-25T10:15:40;3.10;99.90
6008;DHT22;3032;49.484;11.112;2023-01-25T10:18:35;2.80;99.90
6008;DHT22;3032;49.484;11.112;2023-01-25T10:21:18;2.60;99.90
6008;DHT22;3032;49.484;11.112;2023-01-25T10:26:37;2.20;99.90
6008;DHT22;3032;49.484;11.112;2023-01-25T10:29:21;2.10;99.90
6008;DHT22;3032;49.484;11.112;2023-01-25T10:31:51;2.30;99.90
6008;DHT22;3032;49.484;11.112;2023-01-25T10:34:31;2.70;99.90
6008;DHT22;3032;49.484;11.112;2023-01-25T10:37:11;3.30;99.90
6008;DHT22;3032;49.484;11.112;2023-01-25T10:39:43;3.40;99.90
6008;DHT22;3032;49.484;11.112;2023-01-25T10:42:14;3.60;99.90
6008;DHT22;3032;49.484;11.112;2023-01-25T10:44:40;3.30;99.90
6008;DHT22;3032;49.484;11.112;2023-01-25T10:47:22;3.10;99.90
6008;DHT22;3032;49.484;11.112;2023-01-25T10:49:50;3.10;99.90
6008;DHT22;3032;49.484;11.112;2023-01-25T10:52:23;3.40;99.90
6008;DHT22;3032;49.484;11.112;2023-01-25T10:55:18;3.00;99.90
6008;DHT22;3032;49.484;11.112;2023-01-25T10:57:52;2.80;99.90
6008;DHT22;3032;49.484;11.112;2023-01-25T11:00:37;2.90;99.90
6008;DHT22;3032;49.484;11.112;2023-01-25T11:03:04;3.00;99.90
6008;DHT22;3032;49.484;11.112;2023-01-25T11:05:35;3.30;99.90
6008;DHT22;3032;49.484;11.112;2023-01-25T11:10:41;3.80;99.90
6008;DHT22;3032;49.484;11.112;2023-01-25T11:15:40;3.90;99.90
6008;DHT22;3032;49.484;11.112;2023-01-25T11:18:10;4.10;99.90
6008;DHT22;3032;49.484;11.112;2023-01-25T11:20:37;4.30;99.90
6008;DHT22;3032;49.484;11.112;2023-01-25T11:23:02;4.50;99.90
6008;DHT22;3032;49.484;11.112;2023-01-25T11:25:34;4.60;99.90
6008;DHT22;3032;49.484;11.112;2023-01-25T11:28:21;4.70;99.90
6008;DHT22;3032;49.484;11.112;2023-01-25T11:30:48;4.50;99.90
6008;DHT22;3032;49.484;11.112;2023-01-25T11:33:16;4.60;99.90
6008;DHT22;3032;49.484;11.112;2023-01-25T11:36:09;4.80;99.90
6008;DHT22;3032;49.484;11.112;2023-01-25T11:38:35;4.70;99.90
6008;DHT22;3032;49.484;11.112;2023-01-25T11:41:59;4.70;99.90
6008;DHT22;3032;49.484;11.112;2023-01-25T11:46:50;4.60;99.90
6008;DHT22;3032;49.484;11.112;2023-01-25T11:57:44;4.40;99.90
6008;DHT22;3032;49.484;11.112;2023-01-25T12:05:59;3.80;99.90
6008;DHT22;3032;49.484;11.112;2023-01-25T12:17:00;3.90;99.90
6008;DHT22;3032;49.484;11.112;2023-01-25T12:22:07;4.00;99.90
6008;DHT22;3032;49.484;11.112;2023-01-25T12:30:20;4.40;99.90
6008;DHT22;3032;49.484;11.112;2023-01-25T12:32:55;4.40;99.90
6008;DHT22;3032;49.484;11.112;2023-01-25T12:35:24;4.00;99.90
6008;DHT22;3032;49.484;11.112;2023-01-25T12:37:59;3.90;99.90
6008;DHT22;3032;49.484;11.112;2023-01-25T12:41:01;4.00;99.90
6008;DHT22;3032;49.484;11.112;2023-01-25T12:43:36;3.90;99.90
6008;DHT22;3032;49.484;11.112;2023-01-25T12:46:14;3.30;99.90
6008;DHT22;3032;49.484;11.112;2023-01-25T12:48:45;3.20;99.90
6008;DHT22;3032;49.484;11.112;2023-01-25T12:51:14;3.10;99.90
6008;DHT22;3032;49.484;11.112;2023-01-25T12:53:45;3.00;99.90
6008;DHT22;3032;49.484;11.112;2023-01-25T12:59:02;2.60;99.90
6008;DHT22;3032;49.484;11.112;2023-01-25T13:01:32;2.60;99.90
6008;DHT22;3032;49.484;11.112;2023-01-25T13:09:59;3.20;99.90
6008;DHT22;3032;49.484;11.112;2023-01-25T13:12:26;3.50;99.90
6008;DHT22;3032;49.484;11.112;2023-01-25T13:14:52;3.50;99.90
6008;DHT22;3032;49.484;11.112;2023-01-25T13:19:52;3.50;99.90
6008;DHT22;3032;49.484;11.112;2023-01-25T13:27:40;3.40;99.90
6008;DHT22;3032;49.484;11.112;2023-01-25T13:35:43;3.10;99.90
6008;DHT22;3032;49.484;11.112;2023-01-25T13:38:28;3.00;99.90
6008;DHT22;3032;49.484;11.112;2023-01-25T13:41:12;3.30;99.90
6008;DHT22;3032;49.484;11.112;2023-01-25T13:43:41;3.80;99.90
6008;DHT22;3032;49.484;11.112;2023-01-25T13:46:10;4.00;99.90
6008;DHT22;3032;49.484;11.112;2023-01-25T13:48:44;4.40;99.90
6008;DHT22;3032;49.484;11.112;2023-01-25T13:51:13;4.50;99.90
6008;DHT22;3032;49.484;11.112;2023-01-25T13:53:40;4.50;99.90
6008;DHT22;3032;49.484;11.112;2023-01-25T13:56:25;4.30;99.90
6008;DHT22;3032;49.484;11.112;2023-01-25T13:58:51;4.30;99.90
6008;DHT22;3032;49.484;11.112;2023-01-25T14:01:18;4.50;99.90
6008;DHT22;3032;49.484;11.112;2023-01-25T14:03:46;4.60;99.90
6008;DHT22;3032;49.484;11.112;2023-01-25T14:06:22;4.70;99.90
6008;DHT22;3032;49.484;11.112;2023-01-25T14:08:50;4.50;99.90
6008;DHT22;3032;49.484;11.112;2023-01-25T14:11:21;4.40;99.90
6008;DHT22;3032;49.484;11.112;2023-01-25T14:14:15;4.20;99.90
6008;DHT22;3032;49.484;11.112;2023-01-25T14:16:39;3.40;99.90
6008;DHT22;3032;49.484;11.112;2023-01-25T14:19:21;2.90;99.90
6008;DHT22;3032;49.484;11.112;2023-01-25T14:21:47;3.00;99.90
6008;DHT22;3032;49.484;11.112;2023-01-25T14:24:17;3.20;99.90
6008;DHT22;3032;49.484;11.112;2023-01-25T14:26:43;3.50;99.90
6008;DHT22;3032;49.484;11.112;2023-01-25T14:29:17;3.90;99.90
6008;DHT22;3032;49.484;11.112;2023-01-25T14:31:46;4.00;99.90
6008;DHT22;3032;49.484;11.112;2023-01-25T14:34:17;3.90;99.90
6008;DHT22;3032;49.484;11.112;2023-01-25T14:36:43;4.10;99.90
6008;DHT22;3032;49.484;11.112;2023-01-25T14:39:27;4.10;99.90
6008;DHT22;3032;49.484;11.112;2023-01-25T14:41:53;4.20;99.90
6008;DHT22;3032;49.484;11.112;2023-01-25T14:44:20;4.40;99.90
6008;DHT22;3032;49.484;11.112;2023-01-25T14:46:46;4.60;99.90
6008;DHT22;3032;49.484;11.112;2023-01-25T14:52:12;4.20;99.90
6008;DHT22;3032;49.484;11.112;2023-01-25T14:54:57;2.90;99.90
6008;DHT22;3032;49.484;11.112;2023-01-25T14:57:37;2.70;99.90
6008;DHT22;3032;49.484;11.112;2023-01-25T15:00:20;2.80;99.90
6008;DHT22;3032;49.484;11.112;2023-01-25T15:02:55;2.80;99.90
6008;DHT22;3032;49.484;11.112;2023-01-25T15:05:28;2.80;99.90
6008;DHT22;3032;49.484;11.112;2023-01-25T15:07:55;3.30;99.90
6008;DHT22;3032;49.484;11.112;2023-01-25T15:10:22;3.30;99.90
6008;DHT22;3032;49.484;11.112;2023-01-25T15:15:21;3.40;99.90
6008;DHT22;3032;49.484;11.112;2023-01-25T15:17:48;3.70;99.90
6008;DHT22;3032;49.484;11.112;2023-01-25T15:20:41;3.70;99.90
6008;DHT22;3032;49.484;11.112;2023-01-25T15:23:20;3.70;99.90
6008;DHT22;3032;49.484;11.112;2023-01-25T15:25:51;3.00;99.90
6008;DHT22;3032;49.484;11.112;2023-01-25T15:28:17;2.80;99.90
6008;DHT22;3032;49.484;11.112;2023-01-25T15:30:43;2.90;99.90
6008;DHT22;3032;49.484;11.112;2023-01-25T15:33:19;2.90;99.90
6008;DHT22;3032;49.484;11.112;2023-01-25T15:35:45;2.90;99.90
6008;DHT22;3032;49.484;11.112;2023-01-25T15:38:12;3.20;99.90
6008;DHT22;3032;49.484;11.112;2023-01-25T15:40:38;3.50;99.90
6008;DHT22;3032;49.484;11.112;2023-01-25T15:43:04;3.80;99.90
6008;DHT22;3032;49.484;11.112;2023-01-25T15:45:29;3.80;99.90
6008;DHT22;3032;49.484;11.112;2023-01-25T15:47:57;3.60;99.90
6008;DHT22;3032;49.484;11.112;2023-01-25T15:50:23;3.00;99.90
6008;DHT22;3032;49.484;11.112;2023-01-25T15:52:49;2.50;99.90
6008;DHT22;3032;49.484;11.112;2023-01-25T15:55:14;2.20;99.90
6008;DHT22;3032;49.484;11.112;2023-01-25T15:57:40;2.30;99.90
6008;DHT22;3032;49.484;11.112;2023-01-25T16:00:17;2.60;99.90
6008;DHT22;3032;49.484;11.112;2023-01-25T16:02:43;2.40;99.90
6008;DHT22;3032;49.484;11.112;2023-01-25T16:05:09;2.50;99.90
6008;DHT22;3032;49.484;11.112;2023-01-25T16:07:36;2.90;99.90
6008;DHT22;3032;49.484;11.112;2023-01-25T16:10:03;3.10;99.90
6008;DHT22;3032;49.484;11.112;2023-01-25T16:12:28;2.70;99.90
6008;DHT22;3032;49.484;11.112;2023-01-25T16:14:57;2.50;99.90
6008;DHT22;3032;49.484;11.112;2023-01-25T16:17:22;2.60;99.90
6008;DHT22;3032;49.484;11.112;2023-01-25T16:19:48;3.00;99.90
6008;DHT22;3032;49.484;11.112;2023-01-25T16:22:15;2.90;99.90
6008;DHT22;3032;49.484;11.112;2023-01-25T16:24:41;2.90;99.90
6008;DHT22;3032;49.484;11.112;2023-01-25T16:27:14;3.00;99.90
6008;DHT22;3032;49.484;11.112;2023-01-25T16:29:41;3.20;99.90
6008;DHT22;3032;49.484;11.112;2023-01-25T16:32:06;3.20;99.90
6008;DHT22;3032;49.484;11.112;2023-01-25T16:34:32;2.90;99.90
6008;DHT22;3032;49.484;11.112;2023-01-25T16:36:58;2.60;99.90
6008;DHT22;3032;49.484;11.112;2023-01-25T16:39:25;2.50;99.90
6008;DHT22;3032;49.484;11.112;2023-01-25T16:41:53;2.70;99.90
6008;DHT22;3032;49.484;11.112;2023-01-25T16:44:19;3.10;99.90
6008;DHT22;3032;49.484;11.112;2023-01-25T16:46:45;3.10;99.90
6008;DHT22;3032;49.484;11.112;2023-01-25T16:49:21;3.10;99.90
6008;DHT22;3032;49.484;11.112;2023-01-25T16:51:47;3.40;99.90
6008;DHT22;3032;49.484;11.112;2023-01-25T16:54:16;3.60;99.90
6008;DHT22;3032;49.484;11.112;2023-01-25T16:56:44;3.70;99.90
6008;DHT22;3032;49.484;11.112;2023-01-25T16:59:10;3.90;99.90
6008;DHT22;3032;49.484;11.112;2023-01-25T17:01:36;3.90;99.90
6008;DHT22;3032;49.484;11.112;2023-01-25T17:04:06;4.10;99.90
6008;DHT22;3032;49.484;11.112;2023-01-25T17:06:41;4.20;99.90
6008;DHT22;3032;49.484;11.112;2023-01-25T17:09:11;4.30;99.90
6008;DHT22;3032;49.484;11.112;2023-01-25T17:11:39;4.30;99.90
6008;DHT22;3032;49.484;11.112;2023-01-25T17:14:05;4.10;99.90
6008;DHT22;3032;49.484;11.112;2023-01-25T17:16:31;4.00;99.90
6008;DHT22;3032;49.484;11.112;2023-01-25T17:21:24;3.60;99.90
6008;DHT22;3032;49.484;11.112;2023-01-25T17:23:50;3.10;99.90
6008;DHT22;3032;49.484;11.112;2023-01-25T17:26:18;2.70;99.90
6008;DHT22;3032;49.484;11.112;2023-01-25T17:28:44;2.40;99.90
6008;DHT22;3032;49.484;11.112;2023-01-25T17:31:17;2.00;99.90
6008;DHT22;3032;49.484;11.112;2023-01-25T17:33:43;1.90;99.90
6008;DHT22;3032;49.484;11.112;2023-01-25T17:36:10;1.40;99.90
6008;DHT22;3032;49.484;11.112;2023-01-25T17:38:35;1.40;99.90
6008;DHT22;3032;49.484;11.112;2023-01-25T17:41:05;1.90;99.90
6008;DHT22;3032;49.484;11.112;2023-01-25T17:43:31;2.20;99.90
6008;DHT22;3032;49.484;11.112;2023-01-25T17:45:57;2.40;99.90
6008;DHT22;3032;49.484;11.112;2023-01-25T17:48:23;2.40;99.90
6008;DHT22;3032;49.484;11.112;2023-01-25T17:50:59;2.60;99.90
6008;DHT22;3032;49.484;11.112;2023-01-25T17:53:25;2.40;99.90
6008;DHT22;3032;49.484;11.112;2023-01-25T17:55:51;2.60;99.90
6008;DHT22;3032;49.484;11.112;2023-01-25T17:58:16;2.60;99.90
6008;DHT22;3032;49.484;11.112;2023-01-25T18:00:42;2.30;99.90
6008;DHT22;3032;49.484;11.112;2023-01-25T18:03:07;1.90;99.90
6008;DHT22;3032;49.484;11.112;2023-01-25T18:05:33;1.90;99.90
6008;DHT22;3032;49.484;11.112;2023-01-25T18:07:58;2.10;99.90
6008;DHT22;3032;49.484;11.112;2023-01-25T18:10:24;2.10;99.90